Time;durP1;ratioP1;P1;durP2;ratioP2;P2;SDS_P1;SDS_P2;PMS_P1;PMS_P2;Temp;Humidity;BMP_temperature;BMP_pressure;BME280_temperature;BME280_humidity;BME280_pressure;Samples;Min_cycle;Max_cycle;Signal;HPM_P1;HPM_P2
2022/07/06 00:02:04;;;;;;;17.67;12.37;;;;;;;23.90;100.00;100658.61;1664385;85;21044;-73
2022/07/06 00:04:31;;;;;;;18.05;12.63;;;;;;;23.94;100.00;100658.65;1687096;83;21586;-72
2022/07/06 00:06:58;;;;;;;21.30;12.23;;;;;;;23.85;100.00;100655.62;1693210;84;21566;-72
2022/07/06 00:09:25;;;;;;;18.65;12.00;;;;;;;24.59;100.00;100654.39;1666355;84;21527;-72
2022/07/06 00:11:53;;;;;;;15.65;11.70;;;;;;;24.01;100.00;100653.14;1693226;84;21075;-72
2022/07/06 00:14:21;;;;;;;15.78;11.95;;;;;;;23.94;100.00;100653.39;1693504;83;21031;-72
2022/07/06 00:16:50;;;;;;;21.12;12.45;;;;;;;26.13;94.04;100653.72;1693126;84;21084;-72
2022/07/06 00:19:17;;;;;;;14.90;11.88;;;;;;;24.13;100.00;100657.67;1671818;84;21180;-72
2022/07/06 00:21:44;;;;;;;20.90;12.43;;;;;;;24.07;100.00;100650.36;1693079;85;21075;-72
2022/07/06 00:24:13;;;;;;;15.85;12.13;;;;;;;24.05;100.00;100644.44;1689304;84;21103;-72
2022/07/06 00:26:40;;;;;;;17.12;12.60;;;;;;;23.99;100.00;100652.47;1693396;84;21116;-72
2022/07/06 00:29:07;;;;;;;18.95;12.65;;;;;;;24.00;100.00;100652.78;1693186;84;21606;-72
2022/07/06 00:31:36;;;;;;;15.78;12.43;;;;;;;23.99;100.00;100652.47;1693455;84;21527;-72
2022/07/06 00:34:03;;;;;;;18.77;12.98;;;;;;;23.94;100.00;100646.82;1693226;84;21095;-72
2022/07/06 00:36:30;;;;;;;19.10;13.22;;;;;;;24.12;100.00;100647.63;1693126;84;21555;-72
2022/07/06 00:38:57;;;;;;;19.17;13.98;;;;;;;23.94;100.00;100648.95;1693168;84;21555;-73
2022/07/06 00:41:25;;;;;;;18.12;12.98;;;;;;;24.08;100.00;100644.96;1693326;83;21063;-72
2022/07/06 00:43:56;;;;;;;17.50;12.13;;;;;;;24.27;100.00;100641.81;1693373;84;21096;-72
2022/07/06 00:46:30;;;;;;;18.95;12.58;;;;;;;26.68;92.26;100634.19;1693330;84;21079;-73
2022/07/06 00:48:59;;;;;;;19.73;11.85;;;;;;;26.55;89.36;100636.83;1693622;83;21088;-74
2022/07/06 00:51:30;;;;;;;15.95;12.55;;;;;;;24.25;100.00;100637.19;1690394;84;21063;-73
2022/07/06 00:54:04;;;;;;;14.05;11.22;;;;;;;23.71;100.00;100642.48;1692265;85;21059;-72
2022/07/06 00:56:32;;;;;;;16.37;11.70;;;;;;;23.43;100.00;100638.58;1693337;84;21059;-72
2022/07/06 00:59:01;;;;;;;15.10;11.63;;;;;;;23.83;100.00;100645.75;1693332;84;21072;-73
2022/07/06 01:01:29;;;;;;;13.58;10.82;;;;;;;23.43;100.00;100644.33;1693392;84;21055;-72
2022/07/06 01:03:56;;;;;;;13.20;10.38;;;;;;;23.31;100.00;100643.70;1693059;84;21103;-72
2022/07/06 01:06:25;;;;;;;15.00;10.30;;;;;;;23.16;100.00;100640.27;1693353;84;21519;-72
2022/07/06 01:08:54;;;;;;;17.23;11.00;;;;;;;23.35;100.00;100638.50;1692527;84;21044;-73
2022/07/06 01:11:23;;;;;;;14.15;11.30;;;;;;;23.95;100.00;100641.91;1693249;83;21102;-73
2022/07/06 01:13:51;;;;;;;15.48;11.08;;;;;;;23.34;100.00;100637.68;1693090;84;21192;-72
2022/07/06 01:16:18;;;;;;;18.48;10.82;;;;;;;23.31;100.00;100641.90;1693216;84;21104;-72
2022/07/06 01:18:47;;;;;;;15.95;10.53;;;;;;;23.24;100.00;100640.84;1693089;84;21031;-72
2022/07/06 01:21:15;;;;;;;14.00;10.78;;;;;;;23.21;100.00;100635.88;1692715;84;21055;-72
2022/07/06 01:23:45;;;;;;;15.00;11.18;;;;;;;23.34;100.00;100643.42;1692933;84;21076;-72
2022/07/06 01:26:19;;;;;;;13.72;11.12;;;;;;;23.25;100.00;100649.55;1693157;83;21511;-72
2022/07/06 01:28:48;;;;;;;;;;;;;;;23.31;100.00;100647.16;1695938;84;21035;-72
2022/07/06 01:31:21;;;;;;;14.87;11.22;;;;;;;23.24;100.00;100646.10;1692935;84;20104;-73
2022/07/06 01:33:54;;;;;;;14.87;11.12;;;;;;;23.37;100.00;100643.94;1693209;84;21043;-72
2022/07/06 01:36:21;;;;;;;15.63;12.20;;;;;;;23.35;100.00;100651.63;1693235;83;21130;-72
2022/07/06 01:38:53;;;;;;;14.98;11.10;;;;;;;23.40;100.00;100655.97;1686475;84;21115;-72
2022/07/06 01:41:21;;;;;;;15.43;11.60;;;;;;;23.36;100.00;100656.75;1686296;84;21011;-72
2022/07/06 01:43:50;;;;;;;17.67;12.05;;;;;;;23.42;100.00;100660.59;1686265;83;21119;-72
2022/07/06 01:46:19;;;;;;;17.05;11.78;;;;;;;23.31;100.00;100658.97;1686258;84;21083;-72
2022/07/06 01:48:47;;;;;;;14.85;11.88;;;;;;;23.33;100.00;100658.83;1683618;84;21034;-72
2022/07/06 01:51:14;;;;;;;16.30;11.20;;;;;;;23.30;100.00;100659.96;1691938;84;21519;-72
2022/07/06 01:53:44;;;;;;;14.63;11.33;;;;;;;23.36;100.00;100654.12;1693016;83;21028;-72
2022/07/06 01:56:12;;;;;;;14.15;11.45;;;;;;;23.43;100.00;100657.47;1693007;84;21077;-73
2022/07/06 01:58:40;;;;;;;14.03;11.12;;;;;;;23.26;100.00;100661.72;1693043;84;21052;-72
2022/07/06 02:01:14;;;;;;;14.70;11.00;;;;;;;23.21;100.00;100656.89;1693210;84;21511;-72
2022/07/06 02:03:42;;;;;;;15.23;12.65;;;;;;;23.13;100.00;100662.86;1693275;84;21051;-73
2022/07/06 02:06:11;;;;;;;15.03;11.45;;;;;;;23.00;100.00;100659.73;1693384;83;21540;-72
2022/07/06 02:08:42;;;;;;;13.45;11.05;;;;;;;23.50;100.00;100663.30;1693210;83;21043;-72
2022/07/06 02:11:11;;;;;;;14.73;11.68;;;;;;;23.28;100.00;100660.59;1693141;84;21126;-71
2022/07/06 02:13:41;;;;;;;15.05;11.65;;;;;;;23.29;100.00;100660.92;1692989;84;21522;-73
2022/07/06 02:16:11;;;;;;;11.83;10.63;;;;;;;23.39;100.00;100666.12;1693252;84;21542;-73
2022/07/06 02:18:38;;;;;;;14.53;11.55;;;;;;;23.33;100.00;100668.84;1693667;83;21047;-73
2022/07/06 02:21:07;;;;;;;15.58;12.30;;;;;;;23.38;100.00;100662.68;1692027;84;21044;-72
2022/07/06 02:23:34;;;;;;;15.93;11.85;;;;;;;23.33;100.00;100659.66;1693350;84;21134;-72
2022/07/06 02:26:03;;;;;;;18.25;12.85;;;;;;;23.58;100.00;100662.54;1659892;85;21926;-73
2022/07/06 02:28:31;;;;;;;15.15;11.83;;;;;;;23.23;100.00;100662.81;1692837;84;21512;-73
2022/07/06 02:30:58;;;;;;;16.02;12.60;;;;;;;24.90;100.00;100662.64;1686511;84;21543;-73
2022/07/06 02:33:27;;;;;;;16.27;12.37;;;;;;;23.38;100.00;100661.37;1686132;84;21092;-73
2022/07/06 02:35:55;;;;;;;16.37;11.90;;;;;;;23.33;100.00;100668.03;1686284;84;21567;-72
2022/07/06 02:38:22;;;;;;;15.60;11.45;;;;;;;25.83;99.90;100662.26;1686204;84;21126;-73
2022/07/06 02:40:49;;;;;;;16.37;12.43;;;;;;;23.53;100.00;100664.80;1686166;84;21059;-72
2022/07/06 02:43:16;;;;;;;15.45;11.97;;;;;;;23.63;100.00;100670.82;1686444;84;21052;-72
2022/07/06 02:45:44;;;;;;;17.37;13.15;;;;;;;23.64;100.00;100662.44;1686128;84;21052;-73
2022/07/06 02:48:11;;;;;;;18.60;13.40;;;;;;;23.54;100.00;100658.55;1686282;84;21095;-72
2022/07/06 02:50:38;;;;;;;17.98;12.75;;;;;;;23.67;100.00;100655.09;1686241;85;21075;-73
2022/07/06 02:53:05;;;;;;;15.55;12.88;;;;;;;23.76;100.00;100655.98;1686264;85;21056;-73
2022/07/06 02:55:33;;;;;;;18.17;13.25;;;;;;;23.78;100.00;100661.95;1686080;84;21091;-73
2022/07/06 02:58:01;;;;;;;18.90;13.72;;;;;;;25.37;100.00;100664.81;1686236;84;21103;-73
2022/07/06 03:00:28;;;;;;;19.67;13.15;;;;;;;23.82;100.00;100670.38;1686428;84;21099;-73
2022/07/06 03:02:56;;;;;;;21.85;13.75;;;;;;;26.69;89.60;100668.86;1686194;84;21095;-72
2022/07/06 03:05:23;;;;;;;20.10;13.55;;;;;;;27.16;84.70;100673.31;1686138;84;21064;-73
2022/07/06 03:07:50;;;;;;;20.27;13.15;;;;;;;26.82;83.98;100678.38;1686336;84;21087;-74
2022/07/06 03:10:17;;;;;;;17.52;13.22;;;;;;;27.16;83.51;100668.02;1686427;85;21032;-73
2022/07/06 03:12:46;;;;;;;17.60;13.43;;;;;;;24.47;96.14;100667.44;1686566;84;21516;-73
2022/07/06 03:15:14;;;;;;;21.97;13.70;;;;;;;24.13;100.00;100655.05;1686407;84;21586;-73
2022/07/06 03:17:44;;;;;;;18.40;14.15;;;;;;;24.14;100.00;100654.05;1686585;84;21561;-73
2022/07/06 03:20:12;;;;;;;19.05;13.68;;;;;;;24.15;100.00;100659.17;1686175;84;21096;-73
2022/07/06 03:22:41;;;;;;;19.60;13.88;;;;;;;24.22;100.00;100654.61;1686511;84;21039;-75
2022/07/06 03:25:09;;;;;;;20.08;13.70;;;;;;;24.39;100.00;100657.22;1664503;84;21056;-73
2022/07/06 03:27:38;;;;;;;17.67;14.20;;;;;;;24.48;100.00;100658.58;1665147;85;21582;-73
2022/07/06 03:30:08;;;;;;;21.00;14.38;;;;;;;24.57;100.00;100658.52;1686561;84;21056;-72
2022/07/06 03:32:35;;;;;;;20.25;14.07;;;;;;;24.76;100.00;100656.14;1686447;84;21048;-73
2022/07/06 03:35:06;;;;;;;19.20;14.07;;;;;;;24.91;100.00;100653.73;1686559;84;21039;-73
2022/07/06 03:37:34;;;;;;;19.90;14.53;;;;;;;24.87;100.00;100648.45;1686312;84;21100;-74
2022/07/06 03:40:03;;;;;;;21.02;14.10;;;;;;;25.04;100.00;100653.32;1686516;84;21339;-73
2022/07/06 03:42:30;;;;;;;22.50;14.60;;;;;;;25.14;100.00;100657.13;1664661;85;21087;-72
2022/07/06 03:44:57;;;;;;;18.62;14.35;;;;;;;25.70;93.72;100662.25;1686253;83;21100;-72
2022/07/06 03:47:25;;;;;;;19.25;15.40;;;;;;;25.36;97.87;100660.52;1686350;84;21075;-72
2022/07/06 03:49:53;;;;;;;20.37;14.05;;;;;;;25.45;97.85;100661.38;1686205;84;21516;-73
2022/07/06 03:52:20;;;;;;;20.02;15.28;;;;;;;25.59;97.70;100667.84;1686473;84;21101;-73
2022/07/06 03:54:49;;;;;;;21.95;14.95;;;;;;;25.73;97.36;100658.45;1686078;84;21056;-74
2022/07/06 03:57:18;;;;;;;19.07;14.20;;;;;;;25.86;96.63;100660.63;1686595;84;21022;-74
2022/07/06 03:59:45;;;;;;;17.77;14.73;;;;;;;25.98;97.58;100656.70;1686626;84;21091;-73
2022/07/06 04:02:12;;;;;;;21.05;14.45;;;;;;;26.06;98.13;100661.16;1686348;84;21075;-73
2022/07/06 04:04:39;;;;;;;22.73;14.85;;;;;;;26.27;96.78;100664.60;1686585;84;21020;-73
2022/07/06 04:07:06;;;;;;;16.23;13.85;;;;;;;26.39;95.96;100664.59;1686441;84;21032;-74
2022/07/06 04:09:33;;;;;;;18.45;14.43;;;;;;;26.54;95.32;100661.60;1686609;83;21527;-73
2022/07/06 04:12:01;;;;;;;19.40;14.95;;;;;;;26.70;94.52;100660.78;1686351;84;21087;-74
2022/07/06 04:14:28;;;;;;;20.92;14.35;;;;;;;26.79;94.42;100660.25;1686656;84;21027;-73
2022/07/06 04:16:56;;;;;;;20.27;14.10;;;;;;;26.96;93.91;100659.17;1686377;83;21052;-73
2022/07/06 04:19:23;;;;;;;22.55;13.93;;;;;;;27.09;93.72;100659.97;1686423;84;21064;-73
2022/07/06 04:21:50;;;;;;;18.92;14.47;;;;;;;27.25;94.01;100655.61;1686284;84;21084;-73
2022/07/06 04:24:18;;;;;;;18.00;14.13;;;;;;;27.30;94.64;100652.78;1686410;85;21283;-73
2022/07/06 04:26:45;;;;;;;20.65;15.10;;;;;;;27.45;94.55;100657.33;1686277;83;21055;-73
2022/07/06 04:29:15;;;;;;;22.13;14.68;;;;;;;27.53;94.76;100647.52;1686181;85;21518;-74
2022/07/06 04:31:42;;;;;;;20.55;14.55;;;;;;;27.64;94.51;100648.95;1686556;84;21028;-73
2022/07/06 04:34:09;;;;;;;20.40;14.15;;;;;;;27.65;95.14;100647.12;1686290;85;21068;-74
2022/07/06 04:36:37;;;;;;;19.23;14.20;;;;;;;27.71;95.63;100644.58;1686332;84;21099;-74
2022/07/06 04:39:05;;;;;;;16.75;14.40;;;;;;;28.00;94.88;100644.38;1686559;84;21574;-74
2022/07/06 04:41:33;;;;;;;18.80;13.80;;;;;;;28.26;94.35;100648.47;1686619;83;21084;-73
2022/07/06 04:44:00;;;;;;;20.48;14.68;;;;;;;28.34;94.23;100648.38;1686101;85;21056;-74
2022/07/06 04:46:27;;;;;;;16.80;13.38;;;;;;;28.50;92.62;100646.11;1686260;84;21539;-73
2022/07/06 04:48:54;;;;;;;19.30;14.80;;;;;;;28.68;91.94;100654.52;1686484;85;21063;-74
2022/07/06 04:51:23;;;;;;;18.62;15.00;;;;;;;28.81;92.46;100647.74;1685899;84;21051;-73
2022/07/06 04:53:52;;;;;;;19.17;14.47;;;;;;;29.07;91.43;100647.26;1686347;84;21063;-73
2022/07/06 04:56:19;;;;;;;21.62;15.40;;;;;;;29.22;90.31;100642.79;1686301;84;21480;-73
2022/07/06 04:58:46;;;;;;;19.55;14.80;;;;;;;29.37;89.38;100645.39;1686356;83;21069;-73
2022/07/06 05:01:14;;;;;;;21.95;15.63;;;;;;;29.57;89.30;100646.92;1686210;84;21083;-74
2022/07/06 05:03:41;;;;;;;21.48;14.83;;;;;;;29.78;87.35;100646.13;1661483;85;21114;-73
2022/07/06 05:06:10;;;;;;;17.55;14.58;;;;;;;29.95;85.69;100645.37;1688912;84;21084;-73
2022/07/06 05:08:38;;;;;;;21.95;15.10;;;;;;;30.10;84.80;100642.61;1691747;84;21071;-73
2022/07/06 05:11:05;;;;;;;26.42;14.33;;;;;;;30.94;79.46;100647.88;1693082;84;21216;-74
2022/07/06 05:13:33;;;;;;;21.33;14.60;;;;;;;32.35;78.31;100648.90;1687547;83;21091;-73
2022/07/06 05:16:01;;;;;;;24.57;14.75;;;;;;;31.09;77.61;100653.03;1687255;84;21043;-73
2022/07/06 05:18:30;;;;;;;20.25;14.43;;;;;;;30.56;80.80;100650.11;1689585;83;21051;-74
2022/07/06 05:20:57;;;;;;;20.80;14.18;;;;;;;30.57;80.25;100650.92;1693147;84;21043;-73
2022/07/06 05:23:25;;;;;;;18.20;15.00;;;;;;;30.82;80.27;100649.91;1692519;84;21066;-74
2022/07/06 05:25:54;;;;;;;19.50;15.35;;;;;;;31.09;80.21;100650.37;1693961;83;21503;-73
2022/07/06 05:28:22;;;;;;;17.82;15.32;;;;;;;31.21;79.17;100651.14;1698663;83;21488;-73
2022/07/06 05:30:49;;;;;;;18.40;15.72;;;;;;;31.31;78.00;100646.25;1680307;84;21039;-74
2022/07/06 05:33:16;;;;;;;25.08;16.55;;;;;;;31.43;77.19;100645.13;1685941;83;21023;-74
2022/07/06 05:35:45;;;;;;;20.50;16.80;;;;;;;31.60;76.28;100651.75;1693547;83;21590;-74
2022/07/06 05:38:13;;;;;;;21.02;16.27;;;;;;;31.78;75.08;100641.03;1707319;83;21523;-74
2022/07/06 05:40:40;;;;;;;21.77;15.83;;;;;;;31.99;74.97;100644.80;1702626;83;21005;-73
2022/07/06 05:43:08;;;;;;;21.97;15.80;;;;;;;32.16;73.46;100647.08;1699061;83;21038;-73
2022/07/06 05:45:36;;;;;;;20.72;16.57;;;;;;;32.26;72.44;100640.32;1708464;83;21033;-73
2022/07/06 05:50:49;;;;;;;21.40;15.30;;;;;;;32.46;67.95;100636.78;1704912;83;21022;-74
2022/07/06 05:53:16;;;;;;;25.80;18.20;;;;;;;32.59;66.85;100636.78;1674660;84;21079;-73
2022/07/06 05:55:44;;;;;;;31.82;18.35;;;;;;;32.66;66.89;100640.23;1658903;84;21032;-73
2022/07/06 05:58:12;;;;;;;32.03;21.40;;;;;;;32.78;64.04;100637.73;1667970;84;21102;-73
2022/07/06 06:00:40;;;;;;;33.80;20.02;;;;;;;33.00;60.71;100636.92;1642092;86;21030;-73
2022/07/06 06:03:09;;;;;;;40.05;22.82;;;;;;;33.07;60.27;100633.72;1692541;84;21066;-74
2022/07/06 06:05:37;;;;;;;18.40;12.93;;;;;;;33.16;59.31;100631.64;1692369;82;21004;-74
2022/07/06 06:08:06;;;;;;;32.25;21.48;;;;;;;33.27;56.36;100632.31;1689463;83;21059;-74
2022/07/06 06:10:34;;;;;;;24.90;16.55;;;;;;;33.36;57.56;100627.52;1679729;84;21059;-73
2022/07/06 06:13:05;;;;;;;24.55;17.50;;;;;;;33.48;56.85;100634.33;1677612;84;21099;-73
2022/07/06 06:15:32;;;;;;;26.17;16.60;;;;;;;33.54;57.16;100634.80;1664130;85;21492;-72
2022/07/06 06:17:59;;;;;;;20.97;14.78;;;;;;;33.75;56.12;100636.30;1680564;84;21068;-73
2022/07/06 06:20:27;;;;;;;24.35;16.65;;;;;;;33.75;54.18;100632.30;1672163;84;20989;-73
2022/07/06 06:22:57;;;;;;;21.73;15.23;;;;;;;33.82;54.83;100634.91;1674884;84;21091;-73
2022/07/06 06:25:32;;;;;;;23.20;15.95;;;;;;;33.77;54.39;100634.23;1673842;84;21532;-73
2022/07/06 06:27:59;;;;;;;20.20;14.40;;;;;;;33.91;56.93;100636.28;1679702;84;21026;-72
2022/07/06 06:30:27;;;;;;;17.30;12.55;;;;;;;34.04;55.57;100640.15;1678116;84;21039;-73
2022/07/06 06:33:11;;;;;;;16.95;13.13;;;;;;;34.06;53.24;100639.94;1682758;84;21078;-72
2022/07/06 06:35:44;;;;;;;19.75;12.85;;;;;;;34.27;51.84;100641.42;1677032;84;21054;-74
2022/07/06 06:38:11;;;;;;;;;;;;;;;34.38;53.53;100635.33;1686135;84;21118;-73
2022/07/06 06:40:39;;;;;;;13.43;11.25;;;;;;;34.37;51.92;100636.88;1674955;84;20125;-73
2022/07/06 06:43:06;;;;;;;14.47;11.05;;;;;;;34.76;50.90;100628.97;1679570;84;21151;-74
2022/07/06 06:45:36;;;;;;;13.68;10.82;;;;;;;34.93;48.56;100636.38;1676840;84;21514;-73
2022/07/06 06:48:04;;;;;;;14.25;10.20;;;;;;;35.01;47.43;100637.39;1678434;84;21097;-74
2022/07/06 06:50:31;;;;;;;14.65;10.25;;;;;;;35.14;48.05;100628.36;1685546;84;21047;-73
2022/07/06 06:52:59;;;;;;;14.03;10.35;;;;;;;35.16;47.45;100632.99;1679426;84;21503;-73
2022/07/06 06:55:27;;;;;;;11.60;8.88;;;;;;;35.33;47.92;100633.17;1680155;84;21046;-73
2022/07/06 06:57:55;;;;;;;11.57;9.83;;;;;;;35.53;44.97;100632.88;1678253;83;21559;-72
2022/07/06 07:00:22;;;;;;;12.60;9.25;;;;;;;36.02;45.78;100623.61;1669356;85;21093;-72
2022/07/06 07:02:49;;;;;;;14.75;9.53;;;;;;;35.94;45.64;100625.31;1663757;86;21074;-72
2022/07/06 07:05:16;;;;;;;12.25;9.18;;;;;;;37.17;44.47;100631.08;1662326;86;21065;-72
2022/07/06 07:07:43;;;;;;;13.83;9.53;;;;;;;35.78;44.73;100632.70;1656650;86;21145;-72
2022/07/06 07:10:10;;;;;;;11.80;9.05;;;;;;;35.92;44.37;100623.38;1655900;85;21093;-72
2022/07/06 07:12:46;;;;;;;7.85;7.05;;;;;;;35.90;44.82;100626.83;1666205;86;21113;-73
2022/07/06 07:15:13;;;;;;;9.65;7.28;;;;;;;35.92;42.46;100623.38;1658468;85;21057;-72
2022/07/06 07:17:42;;;;;;;10.58;7.70;;;;;;;36.06;42.08;100622.63;1664851;86;21063;-72
2022/07/06 07:20:10;;;;;;;11.78;7.92;;;;;;;36.17;41.87;100621.82;1677142;85;21065;-71
2022/07/06 07:22:37;;;;;;;10.85;7.78;;;;;;;36.30;42.03;100622.11;1674172;84;21108;-73
2022/07/06 07:25:08;;;;;;;12.18;7.72;;;;;;;36.44;40.17;100624.02;1651612;85;21149;-73
2022/07/06 07:27:35;;;;;;;11.25;8.23;;;;;;;36.38;41.37;100621.75;1678154;83;21160;-72
2022/07/06 07:30:04;;;;;;;12.93;8.25;;;;;;;36.38;43.74;100622.28;1692120;83;21100;-72
2022/07/06 07:32:32;;;;;;;9.88;8.43;;;;;;;36.29;43.90;100618.59;1683637;83;22152;-73
2022/07/06 07:34:59;;;;;;;13.32;8.08;;;;;;;36.39;41.95;100622.02;1681692;84;21060;-72
2022/07/06 07:37:26;;;;;;;11.68;7.75;;;;;;;36.48;41.36;100615.79;1664562;85;21148;-74
2022/07/06 07:39:54;;;;;;;11.30;7.90;;;;;;;36.43;43.37;100616.48;1684254;83;21074;-73
2022/07/06 07:42:21;;;;;;;8.80;7.87;;;;;;;36.52;40.60;100613.42;1692851;83;21542;-73
2022/07/06 07:44:48;;;;;;;13.90;8.43;;;;;;;36.66;41.40;100619.67;1692092;83;21060;-73
2022/07/06 07:47:15;;;;;;;9.58;7.90;;;;;;;36.76;41.44;100621.74;1683615;83;21516;-73
2022/07/06 07:49:43;;;;;;;10.50;7.50;;;;;;;36.62;42.07;100623.85;1676928;83;21143;-72
2022/07/06 07:52:10;;;;;;;8.75;7.28;;;;;;;36.75;41.02;100626.00;1677833;83;21066;-74
2022/07/06 07:54:37;;;;;;;8.50;6.80;;;;;;;36.95;39.14;100621.55;1650517;85;21117;-74
2022/07/06 07:57:05;;;;;;;10.08;6.90;;;;;;;36.89;40.91;100626.00;1681453;83;21565;-73
2022/07/06 07:59:32;;;;;;;9.18;6.47;;;;;;;36.88;39.49;100622.51;1681626;85;21530;-74
2022/07/06 08:01:59;;;;;;;12.05;6.67;;;;;;;36.80;39.96;100619.38;1689214;84;21566;-73
2022/07/06 08:04:27;;;;;;;9.10;6.30;;;;;;;36.71;37.41;100620.29;1673841;84;21109;-74
2022/07/06 08:06:55;;;;;;;10.38;7.10;;;;;;;36.88;37.95;100625.19;1684244;83;21606;-73
2022/07/06 08:09:23;;;;;;;11.55;7.42;;;;;;;37.04;40.14;100618.75;1673236;85;21193;-73
2022/07/06 08:11:51;;;;;;;9.80;6.83;;;;;;;37.01;40.25;100621.93;1664437;84;21066;-73
2022/07/06 08:14:18;;;;;;;7.20;6.47;;;;;;;36.87;39.95;100628.11;1662284;86;21714;-74
2022/07/06 08:16:47;;;;;;;7.90;5.67;;;;;;;37.12;38.51;100631.80;1671615;86;21105;-74
2022/07/06 08:19:16;;;;;;;9.63;5.80;;;;;;;37.28;36.93;100626.98;1673482;84;21093;-73
2022/07/06 08:21:44;;;;;;;10.13;6.42;;;;;;;37.34;35.49;100619.84;1689315;84;21088;-74
2022/07/06 08:24:13;;;;;;;10.23;6.65;;;;;;;37.34;37.21;100616.35;1664509;84;21684;-73
2022/07/06 08:26:40;;;;;;;8.75;5.70;;;;;;;37.27;37.88;100620.01;1681138;84;21052;-73
2022/07/06 08:29:07;;;;;;;9.43;5.90;;;;;;;37.33;36.90;100617.39;1688374;84;21611;-73
2022/07/06 08:31:36;;;;;;;11.35;6.45;;;;;;;37.61;37.17;100624.06;1692084;83;21096;-72
2022/07/06 08:34:03;;;;;;;6.92;5.80;;;;;;;37.44;38.95;100624.58;1692115;85;21092;-72
2022/07/06 08:36:33;;;;;;;7.50;6.62;;;;;;;37.53;38.38;100624.44;1636371;86;21517;-72
2022/07/06 08:39:00;;;;;;;7.53;6.45;;;;;;;37.57;38.66;100632.29;1683254;83;21108;-73
2022/07/06 08:41:30;;;;;;;7.95;6.12;;;;;;;37.55;38.59;100630.91;1685987;84;21383;-73
2022/07/06 08:43:57;;;;;;;10.53;5.80;;;;;;;37.55;38.39;100624.20;1686796;84;21041;-73
2022/07/06 08:46:24;;;;;;;12.33;6.55;;;;;;;37.60;36.72;100624.33;1686292;83;21045;-74
2022/07/06 08:48:51;;;;;;;7.17;6.47;;;;;;;37.60;37.89;100617.08;1686530;84;21053;-74
2022/07/06 08:51:20;;;;;;;11.30;6.37;;;;;;;37.65;37.80;100615.83;1686308;84;21061;-74
2022/07/06 08:53:48;;;;;;;7.53;5.53;;;;;;;37.79;37.54;100613.59;1678154;85;21049;-74
2022/07/06 08:56:17;;;;;;;9.35;5.90;;;;;;;37.82;38.06;100619.03;1668597;85;21113;-74
2022/07/06 08:58:44;;;;;;;6.22;5.42;;;;;;;37.86;35.84;100616.13;1645035;86;21036;-73
2022/07/06 09:01:12;;;;;;;6.83;5.62;;;;;;;37.81;37.13;100616.84;1681820;85;21073;-73
2022/07/06 09:03:46;;;;;;;6.22;5.50;;;;;;;37.84;36.80;100612.88;1678419;85;21374;-73
2022/07/06 09:06:15;;;;;;;;;;;;;;;38.11;36.98;100606.83;1686928;85;21098;-72
2022/07/06 09:08:44;;;;;;;10.13;6.42;;;;;;;38.03;35.18;100602.11;1686091;85;20116;-73
2022/07/06 09:11:12;;;;;;;9.23;6.45;;;;;;;37.75;37.54;100570.02;1684212;85;21089;-73
2022/07/06 09:13:40;;;;;;;8.38;6.12;;;;;;;37.85;36.60;100603.20;1685106;84;21068;-74
2022/07/06 09:16:13;;;;;;;9.85;6.47;;;;;;;38.23;35.08;100604.83;1673956;85;21022;-74
2022/07/06 09:18:42;;;;;;;11.15;6.37;;;;;;;38.18;35.68;100607.44;1680135;85;21088;-74
2022/07/06 09:21:09;;;;;;;9.80;6.50;;;;;;;38.25;35.62;100595.98;1685249;85;21149;-73
2022/07/06 09:23:37;;;;;;;9.90;6.10;;;;;;;38.04;35.45;100597.03;1685221;84;21072;-73
2022/07/06 09:26:06;;;;;;;10.75;6.75;;;;;;;38.30;35.57;100597.38;1679178;83;21066;-72
2022/07/06 09:28:44;;;;;;;8.30;6.40;;;;;;;38.01;35.60;100598.86;1691452;85;21109;-73
2022/07/06 09:31:13;;;;;;;9.10;6.55;;;;;;;38.10;36.32;100597.11;1679388;83;21082;-75
2022/07/06 09:34:01;;;;;;;9.65;6.20;;;;;;;38.17;36.48;100605.83;1648029;85;21030;-73
2022/07/06 09:36:43;;;;;;;8.45;5.90;;;;;;;38.39;34.28;100603.95;1686124;84;21194;-73
2022/07/06 09:39:26;;;;;;;6.55;5.75;;;;;;;38.02;34.72;100601.01;1658264;85;21289;-75
2022/07/06 09:41:56;;;;;;;;;;;;;;;38.06;34.79;100596.80;1668541;85;21519;-74
2022/07/06 09:44:31;;;;;;;8.30;6.03;;;;;;;37.78;34.25;100601.77;1666884;85;20442;-74
2022/07/06 09:47:02;;;;;;;10.00;6.10;;;;;;;37.83;36.73;100601.83;1669187;84;21013;-74
2022/07/06 09:49:29;;;;;;;7.42;6.05;;;;;;;37.91;36.60;100597.91;1692747;83;21101;-73
2022/07/06 09:52:00;;;;;;;8.58;6.10;;;;;;;37.75;35.92;100598.22;1693239;83;21093;-74
2022/07/06 09:54:27;;;;;;;7.83;6.17;;;;;;;37.84;36.93;100590.84;1693136;85;21057;-74
2022/07/06 09:56:56;;;;;;;9.93;6.30;;;;;;;38.13;36.38;100596.09;1693259;85;21053;-74
2022/07/06 09:59:29;;;;;;;8.33;6.22;;;;;;;38.28;36.22;100599.50;1693137;84;21037;-74
2022/07/06 10:02:03;;;;;;;7.08;6.47;;;;;;;38.32;36.73;100589.87;1692856;84;21088;-74
2022/07/06 10:04:31;;;;;;;8.10;5.90;;;;;;;38.22;35.89;100586.55;1692838;85;21596;-74
2022/07/06 10:07:00;;;;;;;10.63;5.80;;;;;;;38.28;36.11;100582.86;1661753;84;21160;-72
2022/07/06 10:09:30;;;;;;;7.08;5.83;;;;;;;38.35;35.27;100585.35;1676788;83;21029;-73
2022/07/06 10:12:01;;;;;;;8.18;5.80;;;;;;;38.36;35.18;100577.55;1664737;85;21553;-74
2022/07/06 10:14:33;;;;;;;6.78;5.97;;;;;;;38.42;34.92;100581.12;1691336;83;21044;-73
2022/07/06 10:17:05;;;;;;;8.95;6.03;;;;;;;38.60;34.58;100577.31;1672344;84;21137;-74
2022/07/06 10:19:32;;;;;;;10.25;6.00;;;;;;;38.66;34.26;100577.11;1633671;86;21615;-72
2022/07/06 10:22:02;;;;;;;6.70;6.03;;;;;;;38.56;35.14;100576.20;1691962;85;21528;-74
2022/07/06 10:24:30;;;;;;;6.65;5.95;;;;;;;38.65;35.49;100571.47;1691723;85;21061;-73
2022/07/06 10:26:58;;;;;;;7.28;5.92;;;;;;;38.78;36.32;100567.55;1692683;83;21088;-74
2022/07/06 10:29:25;;;;;;;9.78;6.42;;;;;;;38.76;36.78;100571.56;1692977;85;21021;-74
2022/07/06 10:31:54;;;;;;;7.42;5.55;;;;;;;38.75;36.56;100567.23;1692886;84;21505;-76
2022/07/06 10:34:21;;;;;;;6.97;5.78;;;;;;;38.77;36.75;100563.76;1692765;83;21096;-71
2022/07/06 10:36:54;;;;;;;8.33;6.72;;;;;;;38.81;37.04;100563.53;1692443;83;21533;-74
2022/07/06 10:42:51;;;;;;;8.50;5.85;;;;;;;38.77;36.80;100565.94;1671568;85;21038;-73
2022/07/06 10:45:33;;;;;;;6.78;6.08;;;;;;;38.39;35.45;100560.92;1670186;84;21077;-72
2022/07/06 10:48:17;;;;;;;;;;;;;;;38.55;35.72;100560.59;1661109;85;21160;-72
2022/07/06 10:50:51;;;;;;;8.50;6.03;;;;;;;38.48;34.35;100562.63;1682128;85;20142;-74
2022/07/06 10:53:27;;;;;;;8.63;6.08;;;;;;;38.69;33.66;100558.33;1685204;84;21076;-73
2022/07/06 10:55:59;;;;;;;7.12;6.08;;;;;;;38.85;32.73;100544.46;1693192;83;21088;-74
2022/07/06 10:58:42;;;;;;;6.95;6.10;;;;;;;38.85;32.90;100548.50;1693011;83;21061;-75
2022/07/06 11:01:11;;;;;;;7.95;6.12;;;;;;;38.95;34.25;100542.41;1693194;85;21521;-75
2022/07/06 11:03:47;;;;;;;9.95;6.50;;;;;;;38.92;35.74;100549.66;1692805;83;21017;-74
2022/07/06 11:06:18;;;;;;;9.08;6.33;;;;;;;38.94;34.74;100545.63;1692953;83;21026;-76
2022/07/06 11:09:11;;;;;;;7.65;6.28;;;;;;;38.85;34.67;100539.08;1692719;83;21108;-75
2022/07/06 11:11:41;;;;;;;7.58;6.17;;;;;;;38.72;35.72;100528.75;1692103;83;21124;-74
2022/07/06 11:14:18;;;;;;;11.08;6.60;;;;;;;39.10;35.46;100535.84;1693091;83;21568;-73
2022/07/06 11:16:55;;;;;;;8.78;6.45;;;;;;;39.08;34.79;100534.48;1659698;85;21058;-75
2022/07/06 11:19:23;;;;;;;10.13;6.83;;;;;;;39.45;33.76;100534.50;1660545;85;21113;-75
2022/07/06 11:21:59;;;;;;;8.25;6.78;;;;;;;39.59;32.44;100529.47;1661778;84;21119;-75
2022/07/06 11:24:32;;;;;;;12.03;7.05;;;;;;;39.62;34.34;100523.55;1660103;84;21125;-74
2022/07/06 11:27:00;;;;;;;7.42;6.70;;;;;;;39.65;32.45;100523.84;1666739;84;21087;-75
2022/07/06 11:29:30;;;;;;;7.95;6.47;;;;;;;39.77;32.06;100520.14;1681360;84;21056;-73